createdAt,value
2023-04-12T00:09:34.142Z,4.90
2023-04-12T00:24:33.833Z,5.30
2023-04-12T00:39:34.394Z,3.50
2023-04-12T00:54:34.994Z,3.40
2023-04-12T01:09:35.625Z,3.80
2023-04-12T01:24:35.753Z,5.00
2023-04-12T01:39:35.909Z,3.90
2023-04-12T01:54:36.533Z,6.30
2023-04-12T02:09:37.485Z,9.70
2023-04-12T02:24:37.671Z,9.30
2023-04-12T02:39:38.086Z,7.10
2023-04-12T02:54:39.037Z,6.00
2023-04-12T03:09:39.190Z,8.20
2023-04-12T03:24:39.990Z,10.30
2023-04-12T03:39:40.540Z,8.50
2023-04-12T03:54:41.183Z,6.20
2023-04-12T04:09:41.322Z,6.00
2023-04-12T04:24:41.897Z,184.80
2023-04-12T04:39:42.945Z,1175.70
2023-04-12T04:54:43.156Z,571.50
2023-04-12T05:09:43.231Z,743.60
2023-04-12T05:24:43.780Z,612.50
2023-04-12T05:39:43.466Z,637.70
2023-04-12T05:54:45.116Z,177.40
2023-04-12T06:09:45.045Z,173.80
2023-04-12T06:24:45.189Z,253.10
2023-04-12T06:39:45.305Z,935.20
2023-04-12T06:54:45.412Z,328.00
2023-04-12T07:09:45.719Z,37.00
2023-04-12T07:24:45.625Z,18.60
2023-04-12T07:39:46.245Z,5.50
2023-04-12T07:54:46.402Z,3.20
2023-04-12T08:09:47.489Z,3.70
2023-04-12T08:24:48.583Z,3.20
2023-04-12T08:39:49.173Z,1.80
2023-04-12T08:54:49.802Z,3.10
2023-04-12T09:09:50.399Z,1.90
2023-04-12T09:24:51.876Z,4.80
2023-04-12T09:39:52.176Z,2.90
2023-04-12T09:54:52.896Z,2.60
2023-04-12T10:09:53.494Z,3.10
2023-04-12T10:24:54.341Z,2.60
2023-04-12T10:39:55.546Z,4.50
2023-04-12T10:54:56.953Z,4.80
2023-04-12T11:09:57.576Z,1.50
2023-04-12T11:24:57.766Z,5.10
2023-04-12T11:39:58.640Z,3.00
2023-04-12T11:55:00.007Z,2.40
2023-04-12T12:10:00.894Z,2.90
2023-04-12T12:25:02.152Z,42.30
2023-04-12T12:40:02.526Z,3.00
2023-04-12T12:55:03.833Z,36.30
2023-04-12T13:10:04.834Z,24.50
2023-04-12T13:25:05.724Z,25.60
2023-04-12T13:40:05.866Z,41.90
2023-04-12T13:55:07.060Z,39.20
2023-04-12T14:10:07.070Z,63.40
2023-04-12T14:25:07.620Z,42.30
2023-04-12T14:40:07.879Z,35.50
2023-04-12T14:55:08.178Z,36.60
2023-04-12T15:10:08.574Z,44.10
2023-04-12T15:25:08.769Z,46.30
2023-04-12T15:40:09.301Z,39.70
2023-04-12T15:55:09.998Z,38.60
2023-04-12T16:10:10.489Z,39.60
2023-04-12T16:25:11.086Z,36.50
2023-04-12T16:40:11.268Z,33.60
2023-04-12T16:55:11.937Z,33.50
2023-04-12T17:10:12.402Z,28.50
2023-04-12T17:25:12.852Z,30.20
2023-04-12T17:40:12.904Z,19.20
2023-04-12T17:55:12.967Z,12.00
2023-04-12T18:10:13.501Z,4.60
2023-04-12T18:25:14.084Z,3.90
2023-04-12T18:40:14.496Z,2.90
2023-04-12T18:55:14.878Z,3.30
2023-04-12T19:10:15.580Z,3.40
2023-04-12T19:25:17.611Z,5.20
2023-04-12T19:40:19.569Z,2.40
2023-04-12T19:55:19.821Z,2.10
2023-04-12T20:10:20.449Z,3.60
2023-04-12T20:25:20.933Z,2.30
2023-04-12T20:40:21.061Z,3.20
2023-04-12T20:55:21.198Z,4.20
2023-04-12T21:10:21.764Z,4.20
2023-04-12T21:25:21.870Z,4.10
2023-04-12T21:40:22.099Z,5.20
2023-04-12T21:55:22.620Z,11.90
2023-04-12T22:10:23.244Z,7.10
2023-04-12T22:25:23.755Z,4.70
2023-04-12T22:40:24.354Z,8.90
2023-04-12T22:55:24.986Z,5.50
2023-04-12T23:10:25.551Z,5.70
2023-04-12T23:25:27.463Z,8.10
2023-04-12T23:40:28.007Z,6.80
2023-04-12T23:55:29.864Z,8.40
